sensor_id;sensor_type;location;lat;lon;timestamp;temperature;humidity
19888;DHT22;10106;51.332;12.336;2023-04-15T00:02:14;6.70;99.90
19888;DHT22;10106;51.332;12.336;2023-04-15T00:04:40;6.70;99.90
19888;DHT22;10106;51.332;12.336;2023-04-15T00:07:06;6.70;99.90
19888;DHT22;10106;51.332;12.336;2023-04-15T00:09:31;6.70;99.90
19888;DHT22;10106;51.332;12.336;2023-04-15T00:11:57;6.70;99.90
19888;DHT22;10106;51.332;12.336;2023-04-15T00:14:23;6.70;99.90
19888;DHT22;10106;51.332;12.336;2023-04-15T00:16:48;6.70;99.90
19888;DHT22;10106;51.332;12.336;2023-04-15T00:19:19;6.70;99.90
19888;DHT22;10106;51.332;12.336;2023-04-15T00:21:45;6.70;99.90
19888;DHT22;10106;51.332;12.336;2023-04-15T00:24:12;6.70;99.90
19888;DHT22;10106;51.332;12.336;2023-04-15T00:26:38;6.70;99.90
19888;DHT22;10106;51.332;12.336;2023-04-15T00:29:04;6.60;99.90
19888;DHT22;10106;51.332;12.336;2023-04-15T00:31:30;6.70;99.90
19888;DHT22;10106;51.332;12.336;2023-04-15T00:33:56;6.60;99.90
19888;DHT22;10106;51.332;12.336;2023-04-15T00:36:22;6.70;99.90
19888;DHT22;10106;51.332;12.336;2023-04-15T00:38:47;6.70;99.90
19888;DHT22;10106;51.332;12.336;2023-04-15T00:41:13;6.70;99.90
19888;DHT22;10106;51.332;12.336;2023-04-15T00:43:39;6.70;99.90
19888;DHT22;10106;51.332;12.336;2023-04-15T00:46:06;6.70;99.90
19888;DHT22;10106;51.332;12.336;2023-04-15T00:48:32;6.70;99.90
19888;DHT22;10106;51.332;12.336;2023-04-15T00:50:58;6.70;99.90
19888;DHT22;10106;51.332;12.336;2023-04-15T00:53:23;6.70;99.90
19888;DHT22;10106;51.332;12.336;2023-04-15T00:55:49;6.70;99.90
19888;DHT22;10106;51.332;12.336;2023-04-15T00:58:15;6.70;99.90
19888;DHT22;10106;51.332;12.336;2023-04-15T01:00:44;6.70;99.90
19888;DHT22;10106;51.332;12.336;2023-04-15T01:03:10;6.70;99.90
19888;DHT22;10106;51.332;12.336;2023-04-15T01:05:36;6.70;99.90
19888;DHT22;10106;51.332;12.336;2023-04-15T01:08:03;6.70;99.90
19888;DHT22;10106;51.332;12.336;2023-04-15T01:10:30;6.70;99.90
19888;DHT22;10106;51.332;12.336;2023-04-15T01:12:56;6.70;99.90
19888;DHT22;10106;51.332;12.336;2023-04-15T01:15:23;6.70;99.90
19888;DHT22;10106;51.332;12.336;2023-04-15T01:17:49;6.70;99.90
19888;DHT22;10106;51.332;12.336;2023-04-15T01:20:15;6.70;99.90
19888;DHT22;10106;51.332;12.336;2023-04-15T01:22:41;6.70;99.90
19888;DHT22;10106;51.332;12.336;2023-04-15T01:25:17;6.70;99.90
19888;DHT22;10106;51.332;12.336;2023-04-15T01:27:44;6.70;99.90
19888;DHT22;10106;51.332;12.336;2023-04-15T01:30:10;6.70;99.90
19888;DHT22;10106;51.332;12.336;2023-04-15T01:32:36;6.70;99.90
19888;DHT22;10106;51.332;12.336;2023-04-15T01:35:02;6.70;99.90
19888;DHT22;10106;51.332;12.336;2023-04-15T01:37:28;6.70;99.90
19888;DHT22;10106;51.332;12.336;2023-04-15T01:39:54;6.70;99.90
19888;DHT22;10106;51.332;12.336;2023-04-15T01:42:20;6.60;99.90
19888;DHT22;10106;51.332;12.336;2023-04-15T01:44:46;6.70;99.90
19888;DHT22;10106;51.332;12.336;2023-04-15T01:47:12;6.70;99.90
19888;DHT22;10106;51.332;12.336;2023-04-15T01:49:38;6.60;99.90
19888;DHT22;10106;51.332;12.336;2023-04-15T01:52:04;6.60;99.90
19888;DHT22;10106;51.332;12.336;2023-04-15T01:54:30;6.60;99.90
19888;DHT22;10106;51.332;12.336;2023-04-15T01:56:55;6.60;99.90
19888;DHT22;10106;51.332;12.336;2023-04-15T01:59:21;6.60;99.90
19888;DHT22;10106;51.332;12.336;2023-04-15T02:01:47;6.70;99.90
19888;DHT22;10106;51.332;12.336;2023-04-15T02:04:13;6.70;99.90
19888;DHT22;10106;51.332;12.336;2023-04-15T02:06:42;6.70;99.90
19888;DHT22;10106;51.332;12.336;2023-04-15T02:09:08;6.70;99.90
19888;DHT22;10106;51.332;12.336;2023-04-15T02:11:35;6.70;99.90
19888;DHT22;10106;51.332;12.336;2023-04-15T02:14:04;6.60;99.90
19888;DHT22;10106;51.332;12.336;2023-04-15T02:16:31;6.60;99.90
19888;DHT22;10106;51.332;12.336;2023-04-15T02:18:57;6.50;99.90
19888;DHT22;10106;51.332;12.336;2023-04-15T02:21:22;6.50;99.90
19888;DHT22;10106;51.332;12.336;2023-04-15T02:23:48;6.50;99.90
19888;DHT22;10106;51.332;12.336;2023-04-15T02:26:13;6.50;99.90
19888;DHT22;10106;51.332;12.336;2023-04-15T02:28:39;6.50;99.90
19888;DHT22;10106;51.332;12.336;2023-04-15T02:31:06;6.50;99.90
19888;DHT22;10106;51.332;12.336;2023-04-15T02:33:32;6.50;99.90
19888;DHT22;10106;51.332;12.336;2023-04-15T02:35:58;6.50;99.90
19888;DHT22;10106;51.332;12.336;2023-04-15T02:38:24;6.50;99.90
19888;DHT22;10106;51.332;12.336;2023-04-15T02:40:50;6.50;99.90
19888;DHT22;10106;51.332;12.336;2023-04-15T02:43:16;6.50;99.90
19888;DHT22;10106;51.332;12.336;2023-04-15T02:45:42;6.50;99.90
19888;DHT22;10106;51.332;12.336;2023-04-15T02:48:08;6.50;99.90
19888;DHT22;10106;51.332;12.336;2023-04-15T02:50:34;6.50;99.90
19888;DHT22;10106;51.332;12.336;2023-04-15T02:53:00;6.50;99.90
19888;DHT22;10106;51.332;12.336;2023-04-15T02:55:27;6.50;99.90
19888;DHT22;10106;51.332;12.336;2023-04-15T02:57:53;6.50;99.90
19888;DHT22;10106;51.332;12.336;2023-04-15T03:00:18;6.40;99.90
19888;DHT22;10106;51.332;12.336;2023-04-15T03:02:45;6.40;99.90
19888;DHT22;10106;51.332;12.336;2023-04-15T03:05:12;6.40;99.90
19888;DHT22;10106;51.332;12.336;2023-04-15T03:07:38;6.40;99.90
19888;DHT22;10106;51.332;12.336;2023-04-15T03:10:06;6.40;99.90
19888;DHT22;10106;51.332;12.336;2023-04-15T03:12:32;6.40;99.90
19888;DHT22;10106;51.332;12.336;2023-04-15T03:14:57;6.40;99.90
19888;DHT22;10106;51.332;12.336;2023-04-15T03:17:24;6.40;99.90
19888;DHT22;10106;51.332;12.336;2023-04-15T03:19:50;6.40;99.90
19888;DHT22;10106;51.332;12.336;2023-04-15T03:22:16;6.50;99.90
19888;DHT22;10106;51.332;12.336;2023-04-15T03:24:41;6.50;99.90
19888;DHT22;10106;51.332;12.336;2023-04-15T03:27:07;6.50;99.90
19888;DHT22;10106;51.332;12.336;2023-04-15T03:29:33;6.50;99.90
19888;DHT22;10106;51.332;12.336;2023-04-15T03:31:59;6.50;99.90
19888;DHT22;10106;51.332;12.336;2023-04-15T03:34:25;6.50;99.90
19888;DHT22;10106;51.332;12.336;2023-04-15T03:36:51;6.50;99.90
19888;DHT22;10106;51.332;12.336;2023-04-15T03:39:16;6.40;99.90
19888;DHT22;10106;51.332;12.336;2023-04-15T03:41:42;6.40;99.90
19888;DHT22;10106;51.332;12.336;2023-04-15T03:44:07;6.40;99.90
19888;DHT22;10106;51.332;12.336;2023-04-15T03:46:33;6.40;99.90
19888;DHT22;10106;51.332;12.336;2023-04-15T03:48:59;6.40;99.90
19888;DHT22;10106;51.332;12.336;2023-04-15T03:51:24;6.40;99.90
19888;DHT22;10106;51.332;12.336;2023-04-15T03:53:50;6.40;99.90
19888;DHT22;10106;51.332;12.336;2023-04-15T03:56:16;6.40;99.90
19888;DHT22;10106;51.332;12.336;2023-04-15T03:58:42;6.40;99.90
19888;DHT22;10106;51.332;12.336;2023-04-15T04:01:08;6.40;99.90
19888;DHT22;10106;51.332;12.336;2023-04-15T04:03:34;6.40;99.90
19888;DHT22;10106;51.332;12.336;2023-04-15T04:06:01;6.30;99.90
19888;DHT22;10106;51.332;12.336;2023-04-15T04:08:27;6.40;99.90
19888;DHT22;10106;51.332;12.336;2023-04-15T04:10:52;6.40;99.90
19888;DHT22;10106;51.332;12.336;2023-04-15T04:13:18;6.40;99.90
19888;DHT22;10106;51.332;12.336;2023-04-15T04:15:43;6.40;99.90
19888;DHT22;10106;51.332;12.336;2023-04-15T04:18:09;6.40;99.90
19888;DHT22;10106;51.332;12.336;2023-04-15T04:20:35;6.40;99.90
19888;DHT22;10106;51.332;12.336;2023-04-15T04:23:01;6.40;99.90
19888;DHT22;10106;51.332;12.336;2023-04-15T04:25:27;6.40;99.90
19888;DHT22;10106;51.332;12.336;2023-04-15T04:27:52;6.40;99.90
19888;DHT22;10106;51.332;12.336;2023-04-15T04:30:18;6.40;99.90
19888;DHT22;10106;51.332;12.336;2023-04-15T04:32:44;6.40;99.90
19888;DHT22;10106;51.332;12.336;2023-04-15T04:35:09;6.40;99.90
19888;DHT22;10106;51.332;12.336;2023-04-15T04:37:35;6.40;99.90
19888;DHT22;10106;51.332;12.336;2023-04-15T04:40:01;6.40;99.90
19888;DHT22;10106;51.332;12.336;2023-04-15T04:42:27;6.40;99.90
19888;DHT22;10106;51.332;12.336;2023-04-15T04:44:52;6.40;99.90
19888;DHT22;10106;51.332;12.336;2023-04-15T04:47:18;6.40;99.90
19888;DHT22;10106;51.332;12.336;2023-04-15T04:49:44;6.40;99.90
19888;DHT22;10106;51.332;12.336;2023-04-15T04:52:09;6.40;99.90
19888;DHT22;10106;51.332;12.336;2023-04-15T04:54:36;6.40;99.90
19888;DHT22;10106;51.332;12.336;2023-04-15T04:57:01;6.40;99.90
19888;DHT22;10106;51.332;12.336;2023-04-15T04:59:27;6.40;99.90
19888;DHT22;10106;51.332;12.336;2023-04-15T05:07:03;6.40;99.90
19888;DHT22;10106;51.332;12.336;2023-04-15T05:09:29;6.50;99.90
19888;DHT22;10106;51.332;12.336;2023-04-15T05:11:56;6.50;99.90
19888;DHT22;10106;51.332;12.336;2023-04-15T05:14:22;6.50;99.90
19888;DHT22;10106;51.332;12.336;2023-04-15T05:16:48;6.50;99.90
19888;DHT22;10106;51.332;12.336;2023-04-15T05:19:13;6.50;99.90
19888;DHT22;10106;51.332;12.336;2023-04-15T05:21:39;6.50;99.90
19888;DHT22;10106;51.332;12.336;2023-04-15T05:24:05;6.50;99.90
19888;DHT22;10106;51.332;12.336;2023-04-15T05:26:31;6.50;99.90
19888;DHT22;10106;51.332;12.336;2023-04-15T05:28:57;6.50;99.90
19888;DHT22;10106;51.332;12.336;2023-04-15T05:31:22;6.50;99.90
19888;DHT22;10106;51.332;12.336;2023-04-15T05:33:48;6.60;99.90
19888;DHT22;10106;51.332;12.336;2023-04-15T05:36:14;6.60;99.90
19888;DHT22;10106;51.332;12.336;2023-04-15T05:38:40;6.60;99.90
19888;DHT22;10106;51.332;12.336;2023-04-15T05:41:06;6.60;99.90
19888;DHT22;10106;51.332;12.336;2023-04-15T05:43:32;6.60;99.90
19888;DHT22;10106;51.332;12.336;2023-04-15T05:45:57;6.60;99.90
19888;DHT22;10106;51.332;12.336;2023-04-15T05:48:23;6.60;99.90
19888;DHT22;10106;51.332;12.336;2023-04-15T05:50:49;6.60;99.90
19888;DHT22;10106;51.332;12.336;2023-04-15T05:53:14;6.60;99.90
19888;DHT22;10106;51.332;12.336;2023-04-15T05:55:40;6.70;99.90
19888;DHT22;10106;51.332;12.336;2023-04-15T05:58:06;6.70;99.90
19888;DHT22;10106;51.332;12.336;2023-04-15T06:00:32;6.70;99.90
19888;DHT22;10106;51.332;12.336;2023-04-15T06:02:58;6.70;99.90
19888;DHT22;10106;51.332;12.336;2023-04-15T06:05:24;6.70;99.90
19888;DHT22;10106;51.332;12.336;2023-04-15T06:07:50;6.70;99.90
19888;DHT22;10106;51.332;12.336;2023-04-15T06:10:15;6.70;99.90
19888;DHT22;10106;51.332;12.336;2023-04-15T06:12:41;6.70;99.90
19888;DHT22;10106;51.332;12.336;2023-04-15T06:15:08;6.70;99.90
19888;DHT22;10106;51.332;12.336;2023-04-15T06:17:37;6.80;99.90
19888;DHT22;10106;51.332;12.336;2023-04-15T06:20:03;6.80;99.90
19888;DHT22;10106;51.332;12.336;2023-04-15T06:22:29;6.80;99.90
19888;DHT22;10106;51.332;12.336;2023-04-15T06:24:55;6.80;99.90
19888;DHT22;10106;51.332;12.336;2023-04-15T06:27:20;6.90;99.90
19888;DHT22;10106;51.332;12.336;2023-04-15T06:29:47;6.90;99.90
19888;DHT22;10106;51.332;12.336;2023-04-15T06:32:13;6.90;99.90
19888;DHT22;10106;51.332;12.336;2023-04-15T06:34:38;6.90;99.90
19888;DHT22;10106;51.332;12.336;2023-04-15T06:37:04;6.90;99.90
19888;DHT22;10106;51.332;12.336;2023-04-15T06:39:31;6.90;99.90
19888;DHT22;10106;51.332;12.336;2023-04-15T06:41:57;6.90;99.90
19888;DHT22;10106;51.332;12.336;2023-04-15T06:44:22;6.90;99.90
19888;DHT22;10106;51.332;12.336;2023-04-15T06:46:48;6.90;99.90
19888;DHT22;10106;51.332;12.336;2023-04-15T06:49:14;7.00;99.90
19888;DHT22;10106;51.332;12.336;2023-04-15T06:51:40;6.90;99.90
19888;DHT22;10106;51.332;12.336;2023-04-15T06:54:06;7.00;99.90
19888;DHT22;10106;51.332;12.336;2023-04-15T06:56:32;7.00;99.90
19888;DHT22;10106;51.332;12.336;2023-04-15T06:58:58;7.00;99.90
19888;DHT22;10106;51.332;12.336;2023-04-15T07:01:24;7.00;99.90
19888;DHT22;10106;51.332;12.336;2023-04-15T07:03:49;7.00;99.90
19888;DHT22;10106;51.332;12.336;2023-04-15T07:06:15;7.00;99.90
19888;DHT22;10106;51.332;12.336;2023-04-15T07:08:41;7.00;99.90
19888;DHT22;10106;51.332;12.336;2023-04-15T07:11:07;7.00;99.90
19888;DHT22;10106;51.332;12.336;2023-04-15T07:13:33;7.10;99.90
19888;DHT22;10106;51.332;12.336;2023-04-15T07:16:00;7.20;99.90
19888;DHT22;10106;51.332;12.336;2023-04-15T07:18:26;7.20;99.90
19888;DHT22;10106;51.332;12.336;2023-04-15T07:20:51;7.20;99.90
19888;DHT22;10106;51.332;12.336;2023-04-15T07:23:17;7.20;99.90
19888;DHT22;10106;51.332;12.336;2023-04-15T07:25:43;7.20;99.90
19888;DHT22;10106;51.332;12.336;2023-04-15T07:28:09;7.20;99.90
19888;DHT22;10106;51.332;12.336;2023-04-15T07:30:35;7.20;99.90
19888;DHT22;10106;51.332;12.336;2023-04-15T07:33:01;7.20;99.90
19888;DHT22;10106;51.332;12.336;2023-04-15T07:35:27;7.20;99.90
19888;DHT22;10106;51.332;12.336;2023-04-15T07:37:55;7.30;99.90
19888;DHT22;10106;51.332;12.336;2023-04-15T07:40:20;7.20;99.90
19888;DHT22;10106;51.332;12.336;2023-04-15T07:42:46;7.30;99.90
19888;DHT22;10106;51.332;12.336;2023-04-15T07:45:13;7.30;99.90
19888;DHT22;10106;51.332;12.336;2023-04-15T07:47:39;7.30;99.90
19888;DHT22;10106;51.332;12.336;2023-04-15T07:50:08;7.40;99.90
19888;DHT22;10106;51.332;12.336;2023-04-15T07:52:35;7.40;99.90
19888;DHT22;10106;51.332;12.336;2023-04-15T07:55:05;7.40;99.90
19888;DHT22;10106;51.332;12.336;2023-04-15T07:57:33;7.40;99.90
19888;DHT22;10106;51.332;12.336;2023-04-15T07:59:59;7.50;99.90
19888;DHT22;10106;51.332;12.336;2023-04-15T08:02:25;7.50;99.90
19888;DHT22;10106;51.332;12.336;2023-04-15T08:04:51;7.50;99.90
19888;DHT22;10106;51.332;12.336;2023-04-15T08:07:17;7.50;99.90
19888;DHT22;10106;51.332;12.336;2023-04-15T08:09:43;7.50;99.90
19888;DHT22;10106;51.332;12.336;2023-04-15T08:12:09;7.50;99.90
19888;DHT22;10106;51.332;12.336;2023-04-15T08:14:38;7.50;99.90
19888;DHT22;10106;51.332;12.336;2023-04-15T08:17:04;7.50;99.90
19888;DHT22;10106;51.332;12.336;2023-04-15T08:19:30;7.50;99.90
19888;DHT22;10106;51.332;12.336;2023-04-15T08:21:56;7.50;99.90
19888;DHT22;10106;51.332;12.336;2023-04-15T08:24:23;7.50;99.90
19888;DHT22;10106;51.332;12.336;2023-04-15T08:26:51;7.60;99.90
19888;DHT22;10106;51.332;12.336;2023-04-15T08:29:17;7.60;99.90
19888;DHT22;10106;51.332;12.336;2023-04-15T08:31:43;7.60;99.90
19888;DHT22;10106;51.332;12.336;2023-04-15T08:34:10;7.70;99.90
19888;DHT22;10106;51.332;12.336;2023-04-15T08:36:36;7.70;99.90
19888;DHT22;10106;51.332;12.336;2023-04-15T08:39:02;7.70;99.90
19888;DHT22;10106;51.332;12.336;2023-04-15T08:41:38;7.70;99.90
19888;DHT22;10106;51.332;12.336;2023-04-15T08:44:05;7.70;99.90
19888;DHT22;10106;51.332;12.336;2023-04-15T08:46:32;7.70;99.90
19888;DHT22;10106;51.332;12.336;2023-04-15T08:49:03;7.70;99.90
19888;DHT22;10106;51.332;12.336;2023-04-15T08:51:29;7.70;99.90
19888;DHT22;10106;51.332;12.336;2023-04-15T08:53:55;7.80;99.90
19888;DHT22;10106;51.332;12.336;2023-04-15T08:56:24;7.80;99.90
19888;DHT22;10106;51.332;12.336;2023-04-15T08:58:53;7.90;99.90
19888;DHT22;10106;51.332;12.336;2023-04-15T09:01:19;7.90;99.90
19888;DHT22;10106;51.332;12.336;2023-04-15T09:03:48;7.90;99.90
19888;DHT22;10106;51.332;12.336;2023-04-15T09:06:16;8.00;99.90
19888;DHT22;10106;51.332;12.336;2023-04-15T09:08:42;8.10;99.90
19888;DHT22;10106;51.332;12.336;2023-04-15T09:11:08;8.20;99.90
19888;DHT22;10106;51.332;12.336;2023-04-15T09:13:34;8.20;99.90
19888;DHT22;10106;51.332;12.336;2023-04-15T09:16:04;8.20;99.90
19888;DHT22;10106;51.332;12.336;2023-04-15T09:18:32;8.30;99.90
19888;DHT22;10106;51.332;12.336;2023-04-15T09:21:09;8.30;99.90
19888;DHT22;10106;51.332;12.336;2023-04-15T09:23:39;8.40;99.90
19888;DHT22;10106;51.332;12.336;2023-04-15T09:26:06;8.40;99.90
19888;DHT22;10106;51.332;12.336;2023-04-15T09:28:32;8.40;99.90
19888;DHT22;10106;51.332;12.336;2023-04-15T09:31:00;8.40;99.90
19888;DHT22;10106;51.332;12.336;2023-04-15T09:33:28;8.40;99.90
19888;DHT22;10106;51.332;12.336;2023-04-15T09:36:04;8.50;99.90
19888;DHT22;10106;51.332;12.336;2023-04-15T09:38:31;8.50;99.90
19888;DHT22;10106;51.332;12.336;2023-04-15T09:40:58;8.50;99.90
19888;DHT22;10106;51.332;12.336;2023-04-15T09:43:39;8.60;99.90
19888;DHT22;10106;51.332;12.336;2023-04-15T09:46:05;8.70;99.90
19888;DHT22;10106;51.332;12.336;2023-04-15T09:48:31;8.70;99.90
19888;DHT22;10106;51.332;12.336;2023-04-15T09:50:57;8.80;99.90
19888;DHT22;10106;51.332;12.336;2023-04-15T09:53:24;8.80;99.90
19888;DHT22;10106;51.332;12.336;2023-04-15T09:55:54;8.80;99.90
19888;DHT22;10106;51.332;12.336;2023-04-15T09:58:21;8.80;99.90
19888;DHT22;10106;51.332;12.336;2023-04-15T10:00:49;8.80;99.90
19888;DHT22;10106;51.332;12.336;2023-04-15T10:03:19;8.80;99.90
19888;DHT22;10106;51.332;12.336;2023-04-15T10:05:47;8.90;99.90
19888;DHT22;10106;51.332;12.336;2023-04-15T10:08:15;8.90;99.90
19888;DHT22;10106;51.332;12.336;2023-04-15T10:10:43;8.90;99.90
19888;DHT22;10106;51.332;12.336;2023-04-15T10:13:10;9.00;99.90
19888;DHT22;10106;51.332;12.336;2023-04-15T10:15:37;8.90;99.90
19888;DHT22;10106;51.332;12.336;2023-04-15T10:18:04;9.00;99.90
19888;DHT22;10106;51.332;12.336;2023-04-15T10:20:31;9.10;99.90
19888;DHT22;10106;51.332;12.336;2023-04-15T10:22:58;9.10;99.90
19888;DHT22;10106;51.332;12.336;2023-04-15T10:25:26;9.10;99.90
19888;DHT22;10106;51.332;12.336;2023-04-15T10:27:54;9.10;99.90
19888;DHT22;10106;51.332;12.336;2023-04-15T10:30:21;9.20;99.90
19888;DHT22;10106;51.332;12.336;2023-04-15T10:32:47;9.20;99.90
19888;DHT22;10106;51.332;12.336;2023-04-15T10:35:14;9.20;99.90
19888;DHT22;10106;51.332;12.336;2023-04-15T10:37:40;9.30;99.90
19888;DHT22;10106;51.332;12.336;2023-04-15T10:40:26;9.30;99.90
19888;DHT22;10106;51.332;12.336;2023-04-15T10:42:57;9.20;99.90
19888;DHT22;10106;51.332;12.336;2023-04-15T10:45:36;9.30;99.90
19888;DHT22;10106;51.332;12.336;2023-04-15T10:48:03;9.30;99.90
19888;DHT22;10106;51.332;12.336;2023-04-15T10:50:31;9.30;99.90
19888;DHT22;10106;51.332;12.336;2023-04-15T10:52:58;9.30;99.90
19888;DHT22;10106;51.332;12.336;2023-04-15T10:55:26;9.40;99.90
19888;DHT22;10106;51.332;12.336;2023-04-15T10:57:57;9.40;99.90
19888;DHT22;10106;51.332;12.336;2023-04-15T11:00:27;9.40;99.90
19888;DHT22;10106;51.332;12.336;2023-04-15T11:03:04;9.40;99.90
19888;DHT22;10106;51.332;12.336;2023-04-15T11:08:06;9.50;99.90
19888;DHT22;10106;51.332;12.336;2023-04-15T11:13:24;9.60;99.90
19888;DHT22;10106;51.332;12.336;2023-04-15T11:15:55;9.70;99.90
19888;DHT22;10106;51.332;12.336;2023-04-15T11:18:24;9.70;99.90
19888;DHT22;10106;51.332;12.336;2023-04-15T11:20:55;9.80;99.90
19888;DHT22;10106;51.332;12.336;2023-04-15T11:25:57;10.00;99.90
19888;DHT22;10106;51.332;12.336;2023-04-15T11:28:28;10.00;99.90
19888;DHT22;10106;51.332;12.336;2023-04-15T11:30:56;10.00;99.90
19888;DHT22;10106;51.332;12.336;2023-04-15T11:33:23;10.10;99.90
19888;DHT22;10106;51.332;12.336;2023-04-15T11:35:51;10.10;99.90
19888;DHT22;10106;51.332;12.336;2023-04-15T11:38:18;10.00;99.90
19888;DHT22;10106;51.332;12.336;2023-04-15T11:40:44;10.10;99.90
19888;DHT22;10106;51.332;12.336;2023-04-15T11:43:11;10.10;99.90
19888;DHT22;10106;51.332;12.336;2023-04-15T11:45:59;10.10;99.90
19888;DHT22;10106;51.332;12.336;2023-04-15T11:48:26;10.00;99.90
19888;DHT22;10106;51.332;12.336;2023-04-15T11:51:00;10.00;99.90
19888;DHT22;10106;51.332;12.336;2023-04-15T11:53:43;10.00;99.90
19888;DHT22;10106;51.332;12.336;2023-04-15T11:56:21;10.00;99.90
19888;DHT22;10106;51.332;12.336;2023-04-15T11:58:51;9.90;99.90
19888;DHT22;10106;51.332;12.336;2023-04-15T12:01:17;9.90;99.90
19888;DHT22;10106;51.332;12.336;2023-04-15T12:03:45;9.90;99.90
19888;DHT22;10106;51.332;12.336;2023-04-15T12:06:16;9.90;99.90
19888;DHT22;10106;51.332;12.336;2023-04-15T12:11:51;9.80;99.90
19888;DHT22;10106;51.332;12.336;2023-04-15T12:14:30;9.80;99.90
19888;DHT22;10106;51.332;12.336;2023-04-15T12:16:58;9.80;99.90
19888;DHT22;10106;51.332;12.336;2023-04-15T12:19:40;9.80;99.90
19888;DHT22;10106;51.332;12.336;2023-04-15T12:22:15;9.90;99.90
19888;DHT22;10106;51.332;12.336;2023-04-15T12:24:42;9.90;99.90
19888;DHT22;10106;51.332;12.336;2023-04-15T12:27:12;9.90;99.90
19888;DHT22;10106;51.332;12.336;2023-04-15T12:29:39;10.00;99.90
19888;DHT22;10106;51.332;12.336;2023-04-15T12:32:16;10.10;99.90
19888;DHT22;10106;51.332;12.336;2023-04-15T12:37:14;10.10;99.90
19888;DHT22;10106;51.332;12.336;2023-04-15T12:39:41;10.00;99.90
19888;DHT22;10106;51.332;12.336;2023-04-15T12:42:08;10.00;99.90
19888;DHT22;10106;51.332;12.336;2023-04-15T12:44:35;10.00;99.90
19888;DHT22;10106;51.332;12.336;2023-04-15T12:47:01;10.00;99.90
19888;DHT22;10106;51.332;12.336;2023-04-15T12:49:27;10.10;99.90
19888;DHT22;10106;51.332;12.336;2023-04-15T12:51:55;10.10;99.90
19888;DHT22;10106;51.332;12.336;2023-04-15T12:54:21;10.30;99.90
19888;DHT22;10106;51.332;12.336;2023-04-15T12:56:47;10.30;99.90
19888;DHT22;10106;51.332;12.336;2023-04-15T12:59:15;10.40;99.90
19888;DHT22;10106;51.332;12.336;2023-04-15T13:01:42;10.40;99.90
19888;DHT22;10106;51.332;12.336;2023-04-15T13:04:08;10.50;99.90
19888;DHT22;10106;51.332;12.336;2023-04-15T13:06:33;10.50;99.90
19888;DHT22;10106;51.332;12.336;2023-04-15T13:08:59;10.50;99.90
19888;DHT22;10106;51.332;12.336;2023-04-15T13:11:26;10.40;99.90
19888;DHT22;10106;51.332;12.336;2023-04-15T13:13:53;10.40;99.90
19888;DHT22;10106;51.332;12.336;2023-04-15T13:16:20;10.30;99.90
19888;DHT22;10106;51.332;12.336;2023-04-15T13:18:47;10.30;99.90
19888;DHT22;10106;51.332;12.336;2023-04-15T13:21:13;10.40;99.90
19888;DHT22;10106;51.332;12.336;2023-04-15T13:23:40;10.50;99.90
19888;DHT22;10106;51.332;12.336;2023-04-15T13:26:07;10.50;99.90
19888;DHT22;10106;51.332;12.336;2023-04-15T13:28:33;10.50;99.90
19888;DHT22;10106;51.332;12.336;2023-04-15T13:30:58;10.50;99.90
19888;DHT22;10106;51.332;12.336;2023-04-15T13:33:25;10.60;99.90
19888;DHT22;10106;51.332;12.336;2023-04-15T13:35:51;10.60;99.90
19888;DHT22;10106;51.332;12.336;2023-04-15T13:38:16;10.60;99.90
19888;DHT22;10106;51.332;12.336;2023-04-15T13:40:42;10.50;99.90
19888;DHT22;10106;51.332;12.336;2023-04-15T13:43:08;10.40;99.90
19888;DHT22;10106;51.332;12.336;2023-04-15T13:45:34;10.40;99.90
19888;DHT22;10106;51.332;12.336;2023-04-15T13:48:00;10.40;99.90
19888;DHT22;10106;51.332;12.336;2023-04-15T13:50:27;10.40;99.90
19888;DHT22;10106;51.332;12.336;2023-04-15T13:52:53;10.40;99.90
19888;DHT22;10106;51.332;12.336;2023-04-15T13:55:18;10.40;99.90
19888;DHT22;10106;51.332;12.336;2023-04-15T13:57:44;10.50;99.90
19888;DHT22;10106;51.332;12.336;2023-04-15T14:00:11;10.50;99.90
19888;DHT22;10106;51.332;12.336;2023-04-15T14:02:37;10.50;99.90
19888;DHT22;10106;51.332;12.336;2023-04-15T14:05:02;10.50;99.90
19888;DHT22;10106;51.332;12.336;2023-04-15T14:07:29;10.40;99.90
19888;DHT22;10106;51.332;12.336;2023-04-15T14:09:55;10.40;99.90
19888;DHT22;10106;51.332;12.336;2023-04-15T14:12:21;10.40;99.90
19888;DHT22;10106;51.332;12.336;2023-04-15T14:14:47;10.40;99.90
19888;DHT22;10106;51.332;12.336;2023-04-15T14:17:12;10.40;99.90
19888;DHT22;10106;51.332;12.336;2023-04-15T14:19:38;10.40;99.90
19888;DHT22;10106;51.332;12.336;2023-04-15T14:22:04;10.40;99.90
19888;DHT22;10106;51.332;12.336;2023-04-15T14:24:30;10.40;99.90
19888;DHT22;10106;51.332;12.336;2023-04-15T14:26:57;10.40;99.90
19888;DHT22;10106;51.332;12.336;2023-04-15T14:29:23;10.30;99.90
19888;DHT22;10106;51.332;12.336;2023-04-15T14:31:49;10.30;99.90
19888;DHT22;10106;51.332;12.336;2023-04-15T14:34:16;10.30;99.90
19888;DHT22;10106;51.332;12.336;2023-04-15T14:36:42;10.30;99.90
19888;DHT22;10106;51.332;12.336;2023-04-15T14:39:07;10.30;99.90
19888;DHT22;10106;51.332;12.336;2023-04-15T14:41:34;10.30;99.90
19888;DHT22;10106;51.332;12.336;2023-04-15T14:44:00;10.30;99.90
19888;DHT22;10106;51.332;12.336;2023-04-15T14:46:26;10.20;99.90
19888;DHT22;10106;51.332;12.336;2023-04-15T14:48:52;10.20;99.90
19888;DHT22;10106;51.332;12.336;2023-04-15T14:51:17;10.30;99.90
19888;DHT22;10106;51.332;12.336;2023-04-15T14:53:44;10.30;99.90
19888;DHT22;10106;51.332;12.336;2023-04-15T14:56:10;10.30;99.90
19888;DHT22;10106;51.332;12.336;2023-04-15T14:58:36;10.30;99.90
19888;DHT22;10106;51.332;12.336;2023-04-15T15:01:03;10.30;99.90
19888;DHT22;10106;51.332;12.336;2023-04-15T15:03:29;10.30;99.90
19888;DHT22;10106;51.332;12.336;2023-04-15T15:05:55;10.40;99.90
19888;DHT22;10106;51.332;12.336;2023-04-15T15:08:22;10.40;99.90
19888;DHT22;10106;51.332;12.336;2023-04-15T15:10:48;10.50;99.90
19888;DHT22;10106;51.332;12.336;2023-04-15T15:13:14;10.40;99.90
19888;DHT22;10106;51.332;12.336;2023-04-15T15:15:41;10.40;99.90
19888;DHT22;10106;51.332;12.336;2023-04-15T15:18:06;10.50;99.90
19888;DHT22;10106;51.332;12.336;2023-04-15T15:20:32;10.50;99.90
19888;DHT22;10106;51.332;12.336;2023-04-15T15:22:59;10.60;99.90
19888;DHT22;10106;51.332;12.336;2023-04-15T15:25:25;10.60;99.90
19888;DHT22;10106;51.332;12.336;2023-04-15T15:27:51;10.60;99.90
19888;DHT22;10106;51.332;12.336;2023-04-15T15:30:17;10.50;99.90
19888;DHT22;10106;51.332;12.336;2023-04-15T15:32:43;10.50;99.90
19888;DHT22;10106;51.332;12.336;2023-04-15T15:35:09;10.50;99.90
19888;DHT22;10106;51.332;12.336;2023-04-15T15:37:35;10.50;99.90
19888;DHT22;10106;51.332;12.336;2023-04-15T15:40:05;10.50;99.90
19888;DHT22;10106;51.332;12.336;2023-04-15T15:42:32;10.50;99.90
19888;DHT22;10106;51.332;12.336;2023-04-15T15:44:58;10.60;99.90